Time;durP1;ratioP1;P1;durP2;ratioP2;P2;SDS_P1;SDS_P2;PMS_P1;PMS_P2;Temp;Humidity;BMP_temperature;BMP_pressure;BME280_temperature;BME280_humidity;BME280_pressure;Samples;Min_cycle;Max_cycle;Signal;HPM_P1;HPM_P2
2022/11/04 00:01:53;;;;;;;1.33;0.87;;;9.80;99.90;;;;;;5062199;28;20429;-71
2022/11/04 00:04:23;;;;;;;0.70;0.50;;;9.80;98.20;;;;;;5056768;28;21009;-71
2022/11/04 00:06:59;;;;;;;0.55;0.55;;;9.90;91.50;;;;;;5063347;28;20469;-71
2022/11/04 00:09:29;;;;;;;0.40;0.40;;;9.90;72.00;;;;;;5053251;28;20432;-71
2022/11/04 00:14:42;;;;;;;0.63;0.60;;;10.00;27.10;;;;;;5056473;28;20425;-71
2022/11/04 00:17:18;;;;;;;0.25;0.25;;;10.00;3.00;;;;;;5070909;28;20510;-71
2022/11/04 00:33:52;;;;;;;0.20;0.20;;;9.90;1.00;;;;;;5068691;28;20424;-71
2022/11/04 00:36:19;;;;;;;0.60;0.60;;;9.90;1.00;;;;;;5066315;28;20925;-71
2022/11/04 00:38:46;;;;;;;0.40;0.40;;;9.90;1.00;;;;;;5068385;28;20435;-71
2022/11/04 00:41:24;;;;;;;0.57;0.52;;;9.90;1.00;;;;;;5065160;28;20432;-71
2022/11/04 00:43:59;;;;;;;0.22;0.22;;;9.80;1.00;;;;;;5062383;28;20429;-71
2022/11/04 00:46:27;;;;;;;0.30;0.30;;;9.80;1.00;;;;;;5060859;28;20429;-70
2022/11/04 00:48:54;;;;;;;0.20;0.20;;;9.80;1.00;;;;;;5059050;28;20438;-71
2022/11/04 00:51:22;;;;;;;0.30;0.30;;;9.80;1.00;;;;;;5053051;28;20425;-71
2022/11/04 00:53:49;;;;;;;0.10;0.10;;;9.80;1.00;;;;;;5065914;28;20425;-71
2022/11/04 00:56:15;;;;;;;0.20;0.20;;;9.80;1.00;;;;;;5065077;28;20439;-71
2022/11/04 00:58:42;;;;;;;0.20;0.20;;;9.80;1.00;;;;;;5056419;28;20436;-71
2022/11/04 01:01:11;;;;;;;0.10;0.10;;;9.80;1.00;;;;;;5061505;28;20435;-71
2022/11/04 01:03:38;;;;;;;0.30;0.30;;;9.80;1.00;;;;;;5057962;28;20787;-71
2022/11/04 01:06:06;;;;;;;0.30;0.30;;;9.80;1.00;;;;;;5059228;28;20552;-71
2022/11/04 01:08:33;;;;;;;0.20;0.20;;;9.80;1.00;;;;;;5064122;28;20515;-71
2022/11/04 01:11:04;;;;;;;0.30;0.30;;;9.80;1.00;;;;;;5054280;28;20433;-71
2022/11/04 01:13:31;;;;;;;0.30;0.30;;;9.80;1.00;;;;;;5062698;28;20424;-71
2022/11/04 01:16:03;;;;;;;0.17;0.17;;;9.80;1.00;;;;;;5059344;28;20513;-71
2022/11/04 01:18:33;;;;;;;0.20;0.20;;;9.80;99.90;;;;;;5064806;28;20922;-71
2022/11/04 01:21:02;;;;;;;0.20;0.20;;;9.90;99.90;;;;;;5054060;28;20442;-71
2022/11/04 01:23:28;;;;;;;0.10;0.10;;;9.90;99.90;;;;;;5068394;28;20431;-71
2022/11/04 01:25:56;;;;;;;0.20;0.20;;;9.90;99.90;;;;;;5067235;28;20431;-71
2022/11/04 01:28:22;;;;;;;1.50;0.30;;;9.80;99.90;;;;;;5056704;28;20441;-71
2022/11/04 01:30:49;;;;;;;0.20;0.20;;;9.80;99.90;;;;;;5062143;28;20431;-71
2022/11/04 01:33:16;;;;;;;0.20;0.20;;;9.80;99.90;;;;;;5067378;28;20443;-72
2022/11/04 01:35:42;;;;;;;0.20;0.20;;;9.80;99.90;;;;;;5067314;28;20428;-71
2022/11/04 01:38:09;;;;;;;0.10;0.10;;;9.90;99.90;;;;;;5059262;28;20838;-71
2022/11/04 01:40:38;;;;;;;0.22;0.22;;;9.90;1.00;;;;;;5055637;28;20425;-71
2022/11/04 01:43:20;;;;;;;0.10;0.10;;;9.90;1.00;;;;;;5055213;28;20465;-71
2022/11/04 01:46:00;;;;;;;0.20;0.20;;;9.90;99.90;;;;;;5061847;28;20440;-71
2022/11/04 01:48:33;;;;;;;0.17;0.17;;;9.80;1.00;;;;;;5059471;28;20484;-71
2022/11/04 01:50:59;;;;;;;0.10;0.10;;;9.70;1.00;;;;;;5061376;28;20984;-71
2022/11/04 01:53:33;;;;;;;0.17;0.17;;;9.70;70.70;;;;;;5065304;28;20438;-71
2022/11/04 01:56:10;;;;;;;0.13;0.13;;;9.70;1.00;;;;;;5061580;28;20482;-71
2022/11/04 01:58:47;;;;;;;0.50;0.50;;;9.80;99.90;;;;;;5066411;28;20503;-71
2022/11/04 02:01:13;;;;;;;0.10;0.10;;;9.70;1.00;;;;;;5068308;28;20438;-71
2022/11/04 02:03:51;;;;;;;0.17;0.17;;;9.70;99.90;;;;;;5064461;28;20486;-70
2022/11/04 02:06:21;;;;;;;0.13;0.13;;;9.70;1.00;;;;;;5058136;28;20433;-70
2022/11/04 02:08:48;;;;;;;0.10;0.10;;;9.70;99.90;;;;;;5059834;28;20440;-71
2022/11/04 02:12:48;;;;;;;0.20;0.20;;;9.60;99.90;;;;;;5057018;28;20441;-71
2022/11/04 02:14:02;;;;;;;0.10;0.10;;;9.50;99.90;;;;;;5056080;28;20435;-71
2022/11/04 02:16:43;;;;;;;0.10;0.10;;;9.50;99.90;;;;;;5058874;28;20431;-71
2022/11/04 02:19:48;;;;;;;0.30;0.30;;;9.40;99.90;;;;;;5062469;28;20429;-71
2022/11/04 02:22:34;;;;;;;0.13;0.13;;;9.30;99.90;;;;;;5059374;28;20436;-71
2022/11/04 02:25:32;;;;;;;0.30;0.30;;;9.20;99.90;;;;;;5053399;28;20925;-71
2022/11/04 02:28:14;;;;;;;0.20;0.20;;;9.10;1.00;;;;;;5058082;28;20774;-71
2022/11/04 02:30:52;;;;;;;0.25;0.25;;;8.90;1.00;;;;;;5059184;28;20491;-70
2022/11/04 02:33:24;;;;;;;0.10;0.10;;;8.80;89.20;;;;;;5065327;28;20430;-71
2022/11/04 02:36:22;;;;;;;0.30;0.30;;;8.80;99.90;;;;;;5057508;28;20909;-70
2022/11/04 02:39:13;;;;;;;0.10;0.10;;;8.70;99.90;;;;;;5055642;28;20437;-70
2022/11/04 02:41:50;;;;;;;0.20;0.20;;;8.70;99.90;;;;;;5052168;28;21088;-70
2022/11/04 02:44:32;;;;;;;0.40;0.20;;;8.70;99.90;;;;;;5063006;28;20441;-70
2022/11/04 02:47:12;;;;;;;0.10;0.10;;;8.60;99.90;;;;;;5066361;28;20441;-71
2022/11/04 02:49:52;;;;;;;0.20;0.20;;;8.60;99.90;;;;;;5066569;28;20436;-70
2022/11/04 02:52:28;;;;;;;0.20;0.20;;;8.60;99.90;;;;;;5056270;28;20429;-71
2022/11/04 02:55:20;;;;;;;0.17;0.17;;;8.50;99.90;;;;;;5058091;28;20424;-71
2022/11/04 02:57:49;;;;;;;0.20;0.20;;;8.40;99.90;;;;;;5058184;28;20424;-70
2022/11/04 03:00:19;;;;;;;0.20;0.20;;;8.30;1.00;;;;;;5059565;28;21051;-70
2022/11/04 03:02:46;;;;;;;1.00;0.45;;;8.30;1.00;;;;;;5058477;28;20438;-70
2022/11/04 03:05:17;;;;;;;0.20;0.20;;;8.30;1.00;;;;;;5063247;28;20435;-70
2022/11/04 03:07:46;;;;;;;0.10;0.10;;;8.30;1.00;;;;;;5062933;28;20443;-70
2022/11/04 03:10:18;;;;;;;0.10;0.10;;;8.30;71.00;;;;;;5061876;28;20428;-70
2022/11/04 03:13:01;;;;;;;0.20;0.20;;;8.30;96.90;;;;;;5062928;28;20424;-70
2022/11/04 03:15:33;;;;;;;0.20;0.20;;;8.20;73.50;;;;;;5061572;28;20911;-70
2022/11/04 03:18:11;;;;;;;0.10;0.10;;;8.10;7.60;;;;;;5063017;28;20435;-70
2022/11/04 03:20:39;;;;;;;0.30;0.30;;;7.90;1.00;;;;;;5053511;28;20439;-69
2022/11/04 03:23:09;;;;;;;0.20;0.20;;;7.90;81.50;;;;;;5060189;28;20428;-70
2022/11/04 03:25:50;;;;;;;0.30;0.20;;;7.90;99.90;;;;;;5061651;28;20965;-69
2022/11/04 03:28:38;;;;;;;0.20;0.20;;;7.90;99.90;;;;;;5063905;28;20566;-70
2022/11/04 03:31:08;;;;;;;0.10;0.10;;;7.90;99.90;;;;;;5053785;28;20439;-69
2022/11/04 03:33:49;;;;;;;0.20;0.20;;;7.90;99.90;;;;;;5063353;28;20435;-69
2022/11/04 03:36:17;;;;;;;0.20;0.20;;;8.00;99.90;;;;;;5066207;28;20511;-69
2022/11/04 03:38:44;;;;;;;0.40;0.40;;;8.00;99.90;;;;;;5058512;28;20437;-70
2022/11/04 03:41:36;;;;;;;0.20;0.20;;;8.00;99.90;;;;;;5060075;28;20429;-70
2022/11/04 03:44:03;;;;;;;0.20;0.20;;;8.10;99.90;;;;;;5047906;28;20812;-69
2022/11/04 03:46:30;;;;;;;0.30;0.30;;;8.10;99.90;;;;;;5065158;28;20902;-69
2022/11/04 03:48:59;;;;;;;0.35;0.35;;;8.20;63.70;;;;;;5059612;28;20931;-69
2022/11/04 03:51:25;;;;;;;0.65;0.40;;;8.10;1.00;;;;;;5072600;28;20429;-70
2022/11/04 03:53:53;;;;;;;0.30;0.30;;;8.10;1.00;;;;;;5058525;28;20423;-70
2022/11/04 03:56:20;;;;;;;0.67;0.67;;;8.00;99.90;;;;;;5062283;28;20424;-70
2022/11/04 03:59:03;;;;;;;0.47;0.47;;;8.00;99.90;;;;;;5058784;28;20423;-70
2022/11/04 04:01:59;;;;;;;0.25;0.22;;;7.80;1.00;;;;;;5054320;28;20440;-69
2022/11/04 04:04:35;;;;;;;0.45;0.45;;;7.60;1.00;;;;;;5069121;28;20759;-69
2022/11/04 04:07:16;;;;;;;0.30;0.30;;;7.50;87.20;;;;;;5060649;28;20487;-69
2022/11/04 04:09:56;;;;;;;0.10;0.10;;;7.50;99.90;;;;;;5067441;28;21013;-69
2022/11/04 04:12:27;;;;;;;0.30;0.30;;;7.50;1.00;;;;;;5062585;28;20469;-69
2022/11/04 04:15:01;;;;;;;0.20;0.20;;;7.60;99.90;;;;;;5080390;28;20928;-70
2022/11/04 04:17:31;;;;;;;0.40;0.20;;;7.60;99.90;;;;;;5069627;28;20427;-69
2022/11/04 04:20:15;;;;;;;0.10;0.10;;;7.70;99.90;;;;;;5065064;28;20427;-69
2022/11/04 04:22:50;;;;;;;0.40;0.40;;;7.60;99.90;;;;;;5067280;28;20427;-70
2022/11/04 04:28:04;;;;;;;0.30;0.30;;;7.60;99.90;;;;;;5067132;28;20425;-70
2022/11/04 04:30:33;;;;;;;0.30;0.30;;;7.50;99.90;;;;;;5061746;28;20435;-70
2022/11/04 04:33:18;;;;;;;0.28;0.28;;;7.40;99.90;;;;;;5056462;28;20431;-71
2022/11/04 04:35:54;;;;;;;0.50;0.30;;;7.40;99.90;;;;;;5069085;28;20439;-71
2022/11/04 04:47:07;;;;;;;0.20;0.20;;;7.50;99.90;;;;;;5064822;28;20439;-70
2022/11/04 04:49:34;;;;;;;0.30;0.30;;;7.40;99.90;;;;;;5065488;28;20427;-70
2022/11/04 04:52:05;;;;;;;0.30;0.30;;;7.40;99.90;;;;;;5068700;28;20432;-70
2022/11/04 04:54:32;;;;;;;0.20;0.20;;;7.30;99.90;;;;;;5064767;28;20787;-70
2022/11/04 04:56:59;;;;;;;0.70;0.40;;;7.30;99.90;;;;;;5079626;28;20483;-70
2022/11/04 04:59:27;;;;;;;0.20;0.20;;;7.40;1.00;;;;;;5050687;28;20468;-71
2022/11/04 05:01:54;;;;;;;0.20;0.20;;;7.40;1.00;;;;;;5054529;28;20427;-71
2022/11/04 05:04:21;;;;;;;0.45;0.45;;;7.40;1.00;;;;;;5063262;28;20491;-71
2022/11/04 05:06:48;;;;;;;0.20;0.20;;;7.40;1.00;;;;;;5062415;28;20486;-70
2022/11/04 05:09:14;;;;;;;0.20;0.20;;;7.50;1.00;;;;;;5061237;28;20431;-71
2022/11/04 05:11:41;;;;;;;0.22;0.22;;;7.50;1.00;;;;;;5064400;28;20438;-71
2022/11/04 05:14:10;;;;;;;0.10;0.10;;;7.50;1.00;;;;;;5059770;28;20499;-71
2022/11/04 05:16:37;;;;;;;0.20;0.20;;;7.50;1.00;;;;;;5058770;28;20452;-71
2022/11/04 05:19:06;;;;;;;0.40;0.40;;;7.50;1.00;;;;;;5051530;28;20505;-70
2022/11/04 05:21:33;;;;;;;0.60;0.30;;;7.60;1.00;;;;;;5066009;28;20448;-70
2022/11/04 05:24:00;;;;;;;0.40;0.40;;;7.60;1.00;;;;;;5067886;28;20439;-71
2022/11/04 05:26:30;;;;;;;0.50;0.50;;;7.60;99.90;;;;;;5065667;28;20427;-71
2022/11/04 05:28:57;;;;;;;1.10;0.40;;;7.50;99.90;;;;;;5061816;28;20921;-71
2022/11/04 05:31:24;;;;;;;0.40;0.35;;;7.50;99.90;;;;;;5059576;28;20429;-71
2022/11/04 05:33:52;;;;;;;0.22;0.22;;;7.40;99.90;;;;;;5067943;28;20962;-70
2022/11/04 05:36:18;;;;;;;1.73;0.47;;;7.40;99.90;;;;;;5065515;28;20425;-71
2022/11/04 05:38:49;;;;;;;0.40;0.40;;;7.40;99.90;;;;;;5069421;28;20443;-70
2022/11/04 05:41:26;;;;;;;1.30;0.40;;;7.40;99.90;;;;;;5061734;28;20431;-72
2022/11/04 05:44:00;;;;;;;0.50;0.40;;;7.40;99.90;;;;;;5062180;28;21846;-72
2022/11/04 05:46:27;;;;;;;0.40;0.40;;;7.30;99.90;;;;;;5058797;28;20436;-71
2022/11/04 05:48:57;;;;;;;0.20;0.20;;;7.20;99.90;;;;;;5057271;28;20432;-72
2022/11/04 05:51:26;;;;;;;0.30;0.30;;;7.20;1.00;;;;;;5069377;28;20423;-72
2022/11/04 05:53:53;;;;;;;0.30;0.30;;;7.20;1.00;;;;;;5059718;28;20434;-72
2022/11/04 05:56:20;;;;;;;0.50;0.50;;;7.20;1.00;;;;;;5053568;28;20914;-71
2022/11/04 05:58:48;;;;;;;0.20;0.20;;;7.30;1.00;;;;;;5069720;28;20435;-72
2022/11/04 06:01:31;;;;;;;0.22;0.22;;;7.30;1.00;;;;;;5065215;28;20921;-73
2022/11/04 06:03:59;;;;;;;3.50;0.50;;;7.40;1.00;;;;;;5057497;28;20472;-71
2022/11/04 06:06:29;;;;;;;0.20;0.20;;;7.50;1.00;;;;;;5056223;28;20437;-71
2022/11/04 06:08:56;;;;;;;0.20;0.20;;;7.50;1.00;;;;;;5068394;28;20908;-71
2022/11/04 06:11:24;;;;;;;1.00;0.40;;;7.50;1.00;;;;;;5054966;28;20430;-70
2022/11/04 06:13:53;;;;;;;0.40;0.40;;;7.50;1.00;;;;;;5058356;28;20494;-70
2022/11/04 06:16:20;;;;;;;0.50;0.50;;;7.50;1.00;;;;;;5065310;28;20431;-70
2022/11/04 06:18:47;;;;;;;0.30;0.30;;;7.50;1.00;;;;;;5060477;28;20420;-69
2022/11/04 06:21:14;;;;;;;0.30;0.30;;;7.50;1.00;;;;;;5057669;28;20484;-70
2022/11/04 06:23:41;;;;;;;0.40;0.40;;;7.50;1.00;;;;;;5061437;28;20822;-70
2022/11/04 06:26:15;;;;;;;2.60;0.30;;;7.40;1.00;;;;;;5048806;28;20455;-70
2022/11/04 06:28:44;;;;;;;0.30;0.30;;;7.50;1.00;;;;;;5046698;28;21049;-69
2022/11/04 06:31:14;;;;;;;0.15;0.15;;;7.40;99.90;;;;;;5051741;28;20427;-70
2022/11/04 06:33:41;;;;;;;0.10;0.10;;;7.40;99.90;;;;;;5056084;28;20438;-70
2022/11/04 06:36:11;;;;;;;1.00;0.20;;;7.40;99.90;;;;;;5063537;28;20425;-70
2022/11/04 06:38:39;;;;;;;2.50;0.50;;;7.50;99.90;;;;;;5058397;28;20435;-70
2022/11/04 06:41:09;;;;;;;0.50;0.50;;;7.50;99.90;;;;;;5061705;28;20435;-69
2022/11/04 06:43:36;;;;;;;2.00;0.40;;;7.60;99.90;;;;;;5065854;28;20437;-70
2022/11/04 06:46:03;;;;;;;0.43;0.30;;;7.70;99.90;;;;;;5065922;28;20450;-70
2022/11/04 06:48:30;;;;;;;0.20;0.20;;;7.80;99.90;;;;;;5056839;28;20459;-71
2022/11/04 06:50:58;;;;;;;0.30;0.30;;;7.90;99.90;;;;;;5054605;28;20407;-71
2022/11/04 06:53:26;;;;;;;0.30;0.30;;;8.10;74.40;;;;;;5061284;28;20430;-71
2022/11/04 06:55:53;;;;;;;0.27;0.27;;;8.10;1.00;;;;;;5065934;28;20752;-71
2022/11/04 06:58:20;;;;;;;1.70;0.60;;;8.20;1.00;;;;;;5062845;28;20424;-71
2022/11/04 07:00:51;;;;;;;0.25;0.25;;;8.20;99.90;;;;;;5068301;28;20503;-71
2022/11/04 07:03:18;;;;;;;0.45;0.45;;;8.20;99.90;;;;;;5056502;28;20463;-71
2022/11/04 07:05:45;;;;;;;0.30;0.30;;;8.30;99.90;;;;;;5061185;28;20430;-70
2022/11/04 07:08:12;;;;;;;0.20;0.20;;;8.40;1.00;;;;;;5059315;28;20501;-70
2022/11/04 07:10:39;;;;;;;1.42;0.50;;;8.40;1.00;;;;;;5071753;28;20500;-70
2022/11/04 07:13:08;;;;;;;0.50;0.50;;;8.40;1.00;;;;;;5059566;28;20538;-70
2022/11/04 07:15:38;;;;;;;0.35;0.35;;;8.40;1.00;;;;;;5062091;28;20424;-70
2022/11/04 07:18:05;;;;;;;0.32;0.32;;;8.50;1.00;;;;;;5077488;28;20431;-70
2022/11/04 07:20:35;;;;;;;0.57;0.57;;;8.50;1.00;;;;;;5062127;28;20429;-70
2022/11/04 07:23:02;;;;;;;0.45;0.45;;;8.60;1.00;;;;;;5055573;28;20483;-71
2022/11/04 07:25:29;;;;;;;1.35;0.40;;;8.60;1.00;;;;;;5050401;28;20915;-70
2022/11/04 07:27:59;;;;;;;0.93;0.80;;;8.70;47.10;;;;;;5063164;28;20432;-70
2022/11/04 07:30:28;;;;;;;1.10;0.40;;;8.70;2.40;;;;;;5058791;28;20481;-70
2022/11/04 07:32:55;;;;;;;0.40;0.40;;;8.80;99.90;;;;;;5073695;28;20790;-70
2022/11/04 07:35:21;;;;;;;0.90;0.77;;;8.90;99.90;;;;;;5059380;28;20812;-70
2022/11/04 07:37:48;;;;;;;0.40;0.40;;;8.90;1.00;;;;;;5057115;28;20700;-70
2022/11/04 07:40:15;;;;;;;0.60;0.47;;;9.00;99.90;;;;;;5063379;28;20438;-70
2022/11/04 07:42:42;;;;;;;0.43;0.43;;;9.10;99.90;;;;;;5065899;28;20437;-70
2022/11/04 07:45:09;;;;;;;5.90;0.50;;;9.20;33.50;;;;;;5048905;28;20450;-70
2022/11/04 07:47:38;;;;;;;0.20;0.20;;;9.30;1.00;;;;;;5060811;28;20447;-70
2022/11/04 07:50:05;;;;;;;0.38;0.38;;;9.40;94.50;;;;;;5059133;28;20449;-71
2022/11/04 07:52:37;;;;;;;0.35;0.35;;;9.50;99.90;;;;;;5061693;28;20435;-70
2022/11/04 07:55:04;;;;;;;0.40;0.40;;;9.60;1.00;;;;;;5060751;28;20933;-70
2022/11/04 07:57:31;;;;;;;0.45;0.45;;;9.60;99.90;;;;;;5062613;28;20997;-70
2022/11/04 07:59:58;;;;;;;0.50;0.50;;;9.60;99.90;;;;;;5059929;28;20453;-70
2022/11/04 08:02:25;;;;;;;0.45;0.45;;;9.60;1.00;;;;;;5065780;28;20948;-70
2022/11/04 08:04:59;;;;;;;0.50;0.50;;;9.60;1.00;;;;;;5061414;28;20485;-70
2022/11/04 08:07:26;;;;;;;0.30;0.30;;;9.60;1.00;;;;;;5054744;28;20498;-70
2022/11/04 08:09:52;;;;;;;1.40;0.50;;;9.60;1.00;;;;;;5056679;28;20428;-70
2022/11/04 08:12:23;;;;;;;0.40;0.40;;;9.70;1.00;;;;;;5052241;28;20460;-70
2022/11/04 08:14:50;;;;;;;0.38;0.38;;;9.80;1.00;;;;;;5057149;28;21036;-70
2022/11/04 08:17:16;;;;;;;0.40;0.40;;;9.90;1.00;;;;;;5055964;28;20428;-70
2022/11/04 08:19:43;;;;;;;0.30;0.30;;;9.90;99.90;;;;;;5053741;28;20438;-70
2022/11/04 08:22:10;;;;;;;0.40;0.40;;;10.00;99.90;;;;;;5063819;28;20427;-70
2022/11/04 08:24:37;;;;;;;0.40;0.40;;;10.00;99.90;;;;;;5055498;28;20431;-72
2022/11/04 08:27:06;;;;;;;0.50;0.50;;;10.10;99.90;;;;;;5059470;28;20541;-71
2022/11/04 08:29:33;;;;;;;0.70;0.50;;;10.00;99.90;;;;;;5062216;28;20424;-71
2022/11/04 08:32:00;;;;;;;0.40;0.40;;;10.10;99.90;;;;;;5056700;28;20804;-70
2022/11/04 08:34:27;;;;;;;0.70;0.70;;;10.20;99.90;;;;;;5058403;28;20870;-71
2022/11/04 08:36:57;;;;;;;1.88;0.50;;;10.40;99.90;;;;;;5066461;28;20419;-73
2022/11/04 08:39:24;;;;;;;0.40;0.40;;;10.40;99.90;;;;;;5058461;28;20434;-71
2022/11/04 08:41:52;;;;;;;0.30;0.30;;;10.40;99.90;;;;;;5060123;28;20435;-71
2022/11/04 08:44:20;;;;;;;0.47;0.47;;;10.50;99.90;;;;;;5057633;28;20480;-70
2022/11/04 08:46:47;;;;;;;0.38;0.38;;;10.60;1.00;;;;;;5053675;28;20432;-70
2022/11/04 08:49:14;;;;;;;0.30;0.30;;;10.60;1.00;;;;;;5062438;28;20421;-71
2022/11/04 08:51:53;;;;;;;0.37;0.37;;;10.80;99.90;;;;;;5059971;28;20430;-70
2022/11/04 08:54:20;;;;;;;0.87;0.53;;;11.00;8.00;;;;;;5065438;28;20424;-70
2022/11/04 08:56:46;;;;;;;0.40;0.40;;;11.00;1.00;;;;;;5070060;28;20429;-70
2022/11/04 08:59:13;;;;;;;0.40;0.40;;;11.10;99.90;;;;;;5063753;28;20755;-70
2022/11/04 09:01:42;;;;;;;2.13;0.47;;;11.10;99.90;;;;;;5069033;28;20583;-70
2022/11/04 09:04:11;;;;;;;0.55;0.35;;;11.30;99.90;;;;;;5063279;28;20439;-71
2022/11/04 09:06:41;;;;;;;0.57;0.57;;;11.30;99.90;;;;;;5068061;28;20428;-72
2022/11/04 09:09:11;;;;;;;1.10;0.22;;;11.50;99.90;;;;;;5067597;28;20427;-69
2022/11/04 09:11:41;;;;;;;0.47;0.47;;;11.90;99.90;;;;;;5061312;28;20430;-69
2022/11/04 09:14:10;;;;;;;0.30;0.30;;;12.20;99.90;;;;;;5069072;28;20429;-68
2022/11/04 09:16:39;;;;;;;0.40;0.30;;;12.40;99.90;;;;;;5068500;28;20429;-73
2022/11/04 09:19:06;;;;;;;0.40;0.40;;;12.40;99.90;;;;;;5070453;28;20431;-69
2022/11/04 09:21:33;;;;;;;0.30;0.30;;;12.20;99.90;;;;;;5058849;28;20921;-78
2022/11/04 09:23:59;;;;;;;0.30;0.30;;;12.10;99.90;;;;;;5067274;28;20435;-79
2022/11/04 09:26:30;;;;;;;0.70;0.43;;;12.00;99.90;;;;;;5071110;28;20439;-82
2022/11/04 09:28:58;;;;;;;0.50;0.50;;;11.90;99.90;;;;;;5075819;28;20840;-82
2022/11/04 09:31:27;;;;;;;0.40;0.40;;;12.00;99.90;;;;;;5060947;28;20861;-82
2022/11/04 09:33:54;;;;;;;4.07;0.95;;;11.90;99.90;;;;;;5058874;28;20427;-81
2022/11/04 09:36:22;;;;;;;0.40;0.40;;;12.00;99.90;;;;;;5060458;28;20435;-81
2022/11/04 09:39:19;;;;;;;0.50;0.50;;;12.00;99.90;;;;;;5066782;28;20430;-81
2022/11/04 09:42:09;;;;;;;0.60;0.60;;;12.20;99.90;;;;;;5062197;28;20507;-81
2022/11/04 09:44:57;;;;;;;1.10;0.70;;;12.60;99.90;;;;;;5059480;28;20989;-82
2022/11/04 09:47:47;;;;;;;1.08;0.60;;;12.90;99.90;;;;;;5062146;28;20508;-81
2022/11/04 09:50:27;;;;;;;0.47;0.47;;;12.80;99.90;;;;;;5058480;28;20437;-76
2022/11/04 09:53:03;;;;;;;0.28;0.28;;;12.60;99.90;;;;;;5057460;28;20436;-78
2022/11/04 09:55:55;;;;;;;0.50;0.50;;;12.70;99.90;;;;;;5067312;28;20425;-79
2022/11/04 09:58:22;;;;;;;0.30;0.30;;;12.80;99.90;;;;;;5065817;28;20431;-78
2022/11/04 10:01:18;;;;;;;1.38;0.65;;;13.00;99.90;;;;;;5061671;28;20937;-78
2022/11/04 10:03:50;;;;;;;0.32;0.32;;;13.00;99.90;;;;;;5058631;28;20433;-77
2022/11/04 10:06:26;;;;;;;0.30;0.30;;;13.10;99.90;;;;;;5067540;28;20465;-77
2022/11/04 10:09:21;;;;;;;0.75;0.75;;;13.00;99.90;;;;;;5069203;28;20786;-75
2022/11/04 10:12:25;;;;;;;0.50;0.50;;;13.10;99.90;;;;;;5067014;28;20432;-75
2022/11/04 10:15:06;;;;;;;2.65;1.13;;;13.30;99.90;;;;;;5064341;28;21127;-76
2022/11/04 10:17:44;;;;;;;0.68;0.68;;;13.80;99.90;;;;;;5062846;28;20429;-77
2022/11/04 10:20:29;;;;;;;1.10;0.40;;;14.10;99.90;;;;;;5069952;28;20477;-79
2022/11/04 10:23:01;;;;;;;0.47;0.47;;;14.50;99.90;;;;;;5063552;28;20440;-78
2022/11/04 10:25:38;;;;;;;0.40;0.40;;;14.50;99.90;;;;;;5058289;28;20427;-76
2022/11/04 10:28:07;;;;;;;0.70;0.60;;;14.60;99.90;;;;;;5067337;28;20963;-77
2022/11/04 10:30:34;;;;;;;0.60;0.40;;;14.90;99.90;;;;;;5061518;28;20947;-79
2022/11/04 10:33:22;;;;;;;0.38;0.38;;;14.70;99.90;;;;;;5058146;28;20494;-79
2022/11/04 10:35:56;;;;;;;0.20;0.20;;;15.60;99.90;;;;;;5062539;28;20485;-75
2022/11/04 10:38:47;;;;;;;0.38;0.38;;;15.60;99.90;;;;;;5067674;28;20432;-78
2022/11/04 10:41:29;;;;;;;0.60;0.40;;;15.90;99.90;;;;;;5058130;28;20431;-77
2022/11/04 10:44:02;;;;;;;2.30;0.40;;;16.30;99.90;;;;;;5057091;28;20462;-79
2022/11/04 10:46:37;;;;;;;0.43;0.43;;;16.80;99.90;;;;;;5062555;28;20435;-78
2022/11/04 10:49:29;;;;;;;2.20;0.30;;;16.80;99.90;;;;;;5054843;28;20429;-76
2022/11/04 10:51:57;;;;;;;0.30;0.30;;;15.80;99.90;;;;;;5065489;28;20434;-79
2022/11/04 10:54:26;;;;;;;1.95;0.38;;;14.80;99.90;;;;;;5058105;28;20433;-77
2022/11/04 10:56:54;;;;;;;0.40;0.40;;;14.40;99.90;;;;;;5065250;28;20431;-77
2022/11/04 10:59:53;;;;;;;0.25;0.25;;;13.80;99.90;;;;;;5062116;28;20485;-78
2022/11/04 11:02:46;;;;;;;0.40;0.40;;;13.60;99.90;;;;;;5058922;28;20445;-77
2022/11/04 11:05:17;;;;;;;0.43;0.43;;;13.10;99.90;;;;;;5058892;28;20439;-76
2022/11/04 11:07:45;;;;;;;0.50;0.32;;;13.20;99.90;;;;;;5065185;28;20506;-77
2022/11/04 11:10:49;;;;;;;0.30;0.30;;;13.10;99.90;;;;;;5057959;28;20556;-79
2022/11/04 11:13:43;;;;;;;0.90;0.30;;;13.50;99.90;;;;;;5066304;28;20488;-79
2022/11/04 11:16:16;;;;;;;0.30;0.30;;;13.70;99.90;;;;;;5054393;28;20502;-78
2022/11/04 11:18:43;;;;;;;0.65;0.40;;;13.80;99.90;;;;;;5055861;28;20440;-78
2022/11/04 11:21:19;;;;;;;0.40;0.40;;;14.00;99.90;;;;;;5060442;28;20430;-78
2022/11/04 11:23:48;;;;;;;0.40;0.40;;;14.30;99.90;;;;;;5067727;28;20427;-78
2022/11/04 11:26:30;;;;;;;0.35;0.35;;;14.50;99.90;;;;;;5052773;28;20467;-79
2022/11/04 11:29:02;;;;;;;1.00;0.50;;;14.60;99.90;;;;;;5064301;28;20473;-79
2022/11/04 11:31:38;;;;;;;0.40;0.40;;;14.80;99.90;;;;;;5061714;28;20872;-79
2022/11/04 11:34:35;;;;;;;0.47;0.47;;;14.90;99.90;;;;;;5065867;28;20448;-79
2022/11/04 11:37:04;;;;;;;0.30;0.30;;;14.70;99.90;;;;;;5066008;28;20424;-79
2022/11/04 11:39:33;;;;;;;0.50;0.50;;;14.80;99.90;;;;;;5053039;28;20460;-80
2022/11/04 11:42:05;;;;;;;0.30;0.30;;;14.70;99.90;;;;;;5065838;28;20435;-78
2022/11/04 11:44:46;;;;;;;0.30;0.30;;;14.50;99.90;;;;;;5049823;28;20438;-68
2022/11/04 11:47:35;;;;;;;0.70;0.70;;;14.40;99.90;;;;;;5056361;28;20423;-71
2022/11/04 11:50:16;;;;;;;0.30;0.30;;;14.30;99.90;;;;;;5065959;28;20510;-67
2022/11/04 11:52:47;;;;;;;0.57;0.57;;;14.00;99.90;;;;;;5053090;28;20444;-67
2022/11/04 11:55:35;;;;;;;0.20;0.20;;;13.80;99.90;;;;;;5052362;28;20441;-68
2022/11/04 11:58:30;;;;;;;0.30;0.30;;;13.70;99.90;;;;;;5056159;28;20479;-70
2022/11/04 12:01:34;;;;;;;0.38;0.38;;;13.70;99.90;;;;;;5055154;28;20561;-70
2022/11/04 12:04:02;;;;;;;0.55;0.55;;;13.80;99.90;;;;;;5051189;28;20443;-71
2022/11/04 12:07:08;;;;;;;0.30;0.30;;;13.40;99.90;;;;;;5051848;28;20423;-71
2022/11/04 12:09:58;;;;;;;0.38;0.38;;;13.30;99.90;;;;;;5058670;28;20518;-69
2022/11/04 12:12:48;;;;;;;2.13;0.50;;;13.20;99.90;;;;;;5065762;28;20469;-69
2022/11/04 12:15:40;;;;;;;0.22;0.22;;;13.20;99.90;;;;;;5064706;28;20474;-70
2022/11/04 12:18:37;;;;;;;0.50;0.30;;;13.30;99.90;;;;;;5077327;28;20434;-69
2022/11/04 12:21:20;;;;;;;0.30;0.30;;;13.50;99.90;;;;;;5065734;28;20424;-69
2022/11/04 12:23:55;;;;;;;0.30;0.30;;;13.20;99.90;;;;;;5070855;28;20429;-69
2022/11/04 12:26:31;;;;;;;0.30;0.28;;;13.30;99.90;;;;;;5069630;28;20431;-70
2022/11/04 12:29:30;;;;;;;0.40;0.40;;;13.50;99.90;;;;;;5074042;28;20955;-70
2022/11/04 12:32:48;;;;;;;0.20;0.20;;;13.80;99.90;;;;;;5064762;28;20433;-70
2022/11/04 12:35:26;;;;;;;0.30;0.30;;;13.80;99.90;;;;;;5046234;28;20908;-70
2022/11/04 12:38:30;;;;;;;1.50;0.50;;;14.00;99.90;;;;;;5048617;28;20425;-76
2022/11/04 12:41:34;;;;;;;0.20;0.20;;;14.10;99.90;;;;;;5047482;28;20432;-75
2022/11/04 12:44:32;;;;;;;0.30;0.30;;;14.30;99.90;;;;;;5046698;28;20487;-76
2022/11/04 12:47:38;;;;;;;0.40;0.40;;;14.50;99.90;;;;;;5048352;28;20441;-77
2022/11/04 12:50:21;;;;;;;0.75;0.75;;;14.80;99.90;;;;;;5047898;28;20437;-76
2022/11/04 12:52:58;;;;;;;0.40;0.40;;;15.10;99.90;;;;;;5044305;28;20425;-76
2022/11/04 12:55:44;;;;;;;1.60;0.50;;;15.30;99.90;;;;;;5066394;28;20422;-77
2022/11/04 12:58:38;;;;;;;0.40;0.40;;;15.60;99.90;;;;;;5068483;28;20494;-76
2022/11/04 13:01:17;;;;;;;2.17;0.40;;;15.60;99.90;;;;;;5044436;28;20425;-76
2022/11/04 13:04:00;;;;;;;0.28;0.28;;;15.30;99.90;;;;;;5047360;28;20441;-76
2022/11/04 13:06:30;;;;;;;0.60;0.30;;;15.10;99.90;;;;;;5048226;28;20433;-76
2022/11/04 13:09:14;;;;;;;1.73;0.28;;;15.50;99.90;;;;;;5048568;28;20942;-77
2022/11/04 13:11:52;;;;;;;0.50;0.50;;;15.70;99.90;;;;;;5069705;28;20439;-76
2022/11/04 13:14:28;;;;;;;0.20;0.20;;;16.00;99.90;;;;;;5078703;28;20434;-77
2022/11/04 13:17:04;;;;;;;0.70;0.40;;;15.70;99.90;;;;;;5072121;28;20470;-76
2022/11/04 13:19:39;;;;;;;0.40;0.30;;;15.30;99.90;;;;;;5065113;28;20519;-75
2022/11/04 13:22:13;;;;;;;1.80;0.80;;;15.20;99.90;;;;;;5088318;28;20425;-76
2022/11/04 13:24:50;;;;;;;1.00;0.37;;;15.10;99.90;;;;;;5074501;28;20524;-75
2022/11/04 13:27:32;;;;;;;0.60;0.50;;;15.10;99.90;;;;;;5052755;28;20456;-76
2022/11/04 13:30:22;;;;;;;0.65;0.35;;;14.80;99.90;;;;;;5062745;28;20458;-75
2022/11/04 13:32:58;;;;;;;0.40;0.22;;;14.80;99.90;;;;;;5067386;28;20497;-75
2022/11/04 13:35:37;;;;;;;0.50;0.50;;;14.60;99.90;;;;;;5068043;28;20522;-75
2022/11/04 13:38:11;;;;;;;0.30;0.30;;;14.30;99.90;;;;;;5064352;28;20427;-74
2022/11/04 13:40:46;;;;;;;0.50;0.38;;;14.10;99.90;;;;;;5058494;28;20429;-75
2022/11/04 13:43:37;;;;;;;0.20;0.20;;;14.00;99.90;;;;;;5083401;28;20440;-76
2022/11/04 13:46:07;;;;;;;0.38;0.38;;;13.80;99.90;;;;;;5064222;28;20902;-75
2022/11/04 13:48:37;;;;;;;0.30;0.30;;;13.60;99.90;;;;;;5074123;28;20495;-75
2022/11/04 13:51:07;;;;;;;0.33;0.33;;;13.50;99.90;;;;;;5072125;28;20759;-75
2022/11/04 13:53:48;;;;;;;1.10;0.50;;;13.50;99.90;;;;;;5070850;28;20500;-75
2022/11/04 13:56:36;;;;;;;0.57;0.57;;;13.50;99.90;;;;;;5072403;28;20424;-77
2022/11/04 13:59:24;;;;;;;0.40;0.40;;;13.50;99.90;;;;;;5066898;28;20500;-75
2022/11/04 14:02:10;;;;;;;0.40;0.40;;;13.50;99.90;;;;;;5063613;28;20434;-75